Terminal Aerodrome Forecast
Issued by NWS Green Bay, WI

Home | Current Version | Previous Version | Graphics & Text | Print | Product List | Glossary On
Versions: 1 2 3 4 5 6 7 8 9 10 11 12 13 14 15 16 17 18 19 20 21 22 23 24 25 26 27 28 29 30 31 32
000
FTUS43 KGRB 211100
TAFGRB
TAF
KGRB 211120Z 2112/2212 20008KT P6SM SCT100
      TEMPO 2112/2114 4SM BR
     FM211500 20010G17KT P6SM SCT050 SCT120
      TEMPO 2116/2120 BKN050
     FM212300 17006KT P6SM FEW050
     FM220900 17005KT P6SM SCT250 WS015/21030KT=

USA.gov is the U.S. government's official web portal to all federal, state and local government web resources and services.